sensor_id;sensor_type;location;lat;lon;timestamp;P1;durP1;ratioP1;P2;durP2;ratioP2
51883;SDS011;37915;53.254;6.598;2022-11-12T00:00:06;12.15;;;7.15;;
51883;SDS011;37915;53.254;6.598;2022-11-12T00:02:32;15.25;;;7.18;;
51883;SDS011;37915;53.254;6.598;2022-11-12T00:04:58;12.45;;;7.22;;
51883;SDS011;37915;53.254;6.598;2022-11-12T00:07:24;14.02;;;7.57;;
51883;SDS011;37915;53.254;6.598;2022-11-12T00:09:49;14.32;;;7.60;;
51883;SDS011;37915;53.254;6.598;2022-11-12T00:12:15;11.18;;;7.28;;
51883;SDS011;37915;53.254;6.598;2022-11-12T00:14:41;11.43;;;7.13;;
51883;SDS011;37915;53.254;6.598;2022-11-12T00:17:06;11.57;;;7.05;;
51883;SDS011;37915;53.254;6.598;2022-11-12T00:19:32;11.38;;;6.32;;
51883;SDS011;37915;53.254;6.598;2022-11-12T00:21:57;11.80;;;7.05;;
51883;SDS011;37915;53.254;6.598;2022-11-12T00:24:23;12.32;;;7.53;;
51883;SDS011;37915;53.254;6.598;2022-11-12T00:26:49;11.63;;;7.10;;
51883;SDS011;37915;53.254;6.598;2022-11-12T00:29:14;14.27;;;7.70;;
51883;SDS011;37915;53.254;6.598;2022-11-12T00:31:40;11.82;;;7.70;;
51883;SDS011;37915;53.254;6.598;2022-11-12T00:34:05;12.30;;;6.80;;
51883;SDS011;37915;53.254;6.598;2022-11-12T00:36:32;13.13;;;7.18;;
51883;SDS011;37915;53.254;6.598;2022-11-12T00:38:57;11.60;;;7.53;;
51883;SDS011;37915;53.254;6.598;2022-11-12T00:41:23;10.63;;;6.82;;
51883;SDS011;37915;53.254;6.598;2022-11-12T00:43:48;13.05;;;8.00;;
51883;SDS011;37915;53.254;6.598;2022-11-12T00:46:14;15.18;;;7.70;;
51883;SDS011;37915;53.254;6.598;2022-11-12T00:48:40;12.35;;;8.05;;
51883;SDS011;37915;53.254;6.598;2022-11-12T00:51:06;10.75;;;7.40;;
51883;SDS011;37915;53.254;6.598;2022-11-12T00:53:31;11.00;;;7.70;;
51883;SDS011;37915;53.254;6.598;2022-11-12T00:56:01;12.95;;;7.82;;
51883;SDS011;37915;53.254;6.598;2022-11-12T00:58:31;13.48;;;7.57;;
51883;SDS011;37915;53.254;6.598;2022-11-12T01:01:09;12.02;;;8.02;;
51883;SDS011;37915;53.254;6.598;2022-11-12T01:03:37;14.85;;;8.38;;
51883;SDS011;37915;53.254;6.598;2022-11-12T01:06:04;14.18;;;7.40;;
51883;SDS011;37915;53.254;6.598;2022-11-12T01:08:31;12.68;;;8.13;;
51883;SDS011;37915;53.254;6.598;2022-11-12T01:11:14;12.82;;;8.15;;
51883;SDS011;37915;53.254;6.598;2022-11-12T01:13:42;11.25;;;7.28;;
51883;SDS011;37915;53.254;6.598;2022-11-12T01:16:20;12.40;;;7.07;;
51883;SDS011;37915;53.254;6.598;2022-11-12T01:18:50;13.05;;;9.00;;
51883;SDS011;37915;53.254;6.598;2022-11-12T01:21:18;13.57;;;8.07;;
51883;SDS011;37915;53.254;6.598;2022-11-12T01:23:43;13.00;;;8.13;;
51883;SDS011;37915;53.254;6.598;2022-11-12T01:26:10;13.77;;;9.02;;
51883;SDS011;37915;53.254;6.598;2022-11-12T01:28:37;14.07;;;8.25;;
51883;SDS011;37915;53.254;6.598;2022-11-12T01:31:17;16.98;;;9.63;;
51883;SDS011;37915;53.254;6.598;2022-11-12T01:33:51;14.40;;;8.82;;
51883;SDS011;37915;53.254;6.598;2022-11-12T01:36:18;12.05;;;7.90;;
51883;SDS011;37915;53.254;6.598;2022-11-12T01:38:44;15.55;;;8.05;;
51883;SDS011;37915;53.254;6.598;2022-11-12T01:41:12;14.10;;;8.20;;
51883;SDS011;37915;53.254;6.598;2022-11-12T01:43:39;15.30;;;8.63;;
51883;SDS011;37915;53.254;6.598;2022-11-12T01:46:09;14.93;;;8.20;;
51883;SDS011;37915;53.254;6.598;2022-11-12T01:48:51;14.40;;;8.40;;
51883;SDS011;37915;53.254;6.598;2022-11-12T01:51:21;12.60;;;8.25;;
51883;SDS011;37915;53.254;6.598;2022-11-12T01:53:50;12.68;;;8.90;;
51883;SDS011;37915;53.254;6.598;2022-11-12T01:56:18;11.52;;;7.70;;
51883;SDS011;37915;53.254;6.598;2022-11-12T01:58:45;16.27;;;9.52;;
51883;SDS011;37915;53.254;6.598;2022-11-12T02:01:12;13.65;;;8.32;;
51883;SDS011;37915;53.254;6.598;2022-11-12T02:03:37;13.00;;;8.68;;
51883;SDS011;37915;53.254;6.598;2022-11-12T02:06:10;13.13;;;8.75;;
51883;SDS011;37915;53.254;6.598;2022-11-12T02:08:38;12.18;;;8.05;;
51883;SDS011;37915;53.254;6.598;2022-11-12T02:11:13;17.30;;;8.18;;
51883;SDS011;37915;53.254;6.598;2022-11-12T02:13:43;14.75;;;9.00;;
51883;SDS011;37915;53.254;6.598;2022-11-12T02:16:32;13.88;;;8.70;;
51883;SDS011;37915;53.254;6.598;2022-11-12T02:19:00;12.93;;;8.57;;
51883;SDS011;37915;53.254;6.598;2022-11-12T02:21:26;15.90;;;9.15;;
51883;SDS011;37915;53.254;6.598;2022-11-12T02:26:52;11.80;;;7.80;;
51883;SDS011;37915;53.254;6.598;2022-11-12T02:29:19;14.55;;;8.23;;
51883;SDS011;37915;53.254;6.598;2022-11-12T02:31:45;12.02;;;8.00;;
51883;SDS011;37915;53.254;6.598;2022-11-12T02:34:11;12.60;;;8.48;;
51883;SDS011;37915;53.254;6.598;2022-11-12T02:36:37;15.10;;;9.30;;
51883;SDS011;37915;53.254;6.598;2022-11-12T02:39:03;13.13;;;9.00;;
51883;SDS011;37915;53.254;6.598;2022-11-12T02:41:29;16.67;;;10.05;;
51883;SDS011;37915;53.254;6.598;2022-11-12T02:43:55;14.50;;;9.02;;
51883;SDS011;37915;53.254;6.598;2022-11-12T02:46:21;19.83;;;10.10;;
51883;SDS011;37915;53.254;6.598;2022-11-12T02:48:46;15.57;;;9.30;;
51883;SDS011;37915;53.254;6.598;2022-11-12T02:51:12;19.13;;;10.38;;
51883;SDS011;37915;53.254;6.598;2022-11-12T02:53:38;14.80;;;9.55;;
51883;SDS011;37915;53.254;6.598;2022-11-12T02:56:04;16.67;;;9.18;;
51883;SDS011;37915;53.254;6.598;2022-11-12T02:58:30;15.75;;;10.20;;
51883;SDS011;37915;53.254;6.598;2022-11-12T03:00:55;18.95;;;9.95;;
51883;SDS011;37915;53.254;6.598;2022-11-12T03:03:21;14.45;;;10.68;;
51883;SDS011;37915;53.254;6.598;2022-11-12T03:05:58;16.40;;;10.43;;
51883;SDS011;37915;53.254;6.598;2022-11-12T03:08:25;18.75;;;9.98;;
51883;SDS011;37915;53.254;6.598;2022-11-12T03:10:51;14.32;;;10.10;;
51883;SDS011;37915;53.254;6.598;2022-11-12T03:13:17;17.00;;;9.70;;
51883;SDS011;37915;53.254;6.598;2022-11-12T03:15:44;14.13;;;9.80;;
51883;SDS011;37915;53.254;6.598;2022-11-12T03:18:10;18.50;;;10.73;;
51883;SDS011;37915;53.254;6.598;2022-11-12T03:20:36;15.75;;;10.75;;
51883;SDS011;37915;53.254;6.598;2022-11-12T03:23:03;17.48;;;10.43;;
51883;SDS011;37915;53.254;6.598;2022-11-12T03:25:31;15.35;;;10.63;;
51883;SDS011;37915;53.254;6.598;2022-11-12T03:28:01;13.20;;;9.40;;
51883;SDS011;37915;53.254;6.598;2022-11-12T03:30:30;17.90;;;11.43;;
51883;SDS011;37915;53.254;6.598;2022-11-12T03:32:58;16.17;;;11.07;;
51883;SDS011;37915;53.254;6.598;2022-11-12T03:35:23;16.25;;;11.30;;
51883;SDS011;37915;53.254;6.598;2022-11-12T03:37:51;16.77;;;10.45;;
51883;SDS011;37915;53.254;6.598;2022-11-12T03:40:17;17.75;;;10.82;;
51883;SDS011;37915;53.254;6.598;2022-11-12T03:42:46;16.60;;;10.35;;
51883;SDS011;37915;53.254;6.598;2022-11-12T03:45:13;18.25;;;11.20;;
51883;SDS011;37915;53.254;6.598;2022-11-12T03:47:47;17.25;;;11.00;;
51883;SDS011;37915;53.254;6.598;2022-11-12T03:50:14;19.42;;;12.35;;
51883;SDS011;37915;53.254;6.598;2022-11-12T03:52:45;16.55;;;11.13;;
51883;SDS011;37915;53.254;6.598;2022-11-12T03:55:12;17.25;;;11.68;;
51883;SDS011;37915;53.254;6.598;2022-11-12T03:57:39;16.85;;;11.18;;
51883;SDS011;37915;53.254;6.598;2022-11-12T04:00:05;17.95;;;11.90;;
51883;SDS011;37915;53.254;6.598;2022-11-12T04:02:32;20.85;;;11.90;;
51883;SDS011;37915;53.254;6.598;2022-11-12T04:04:58;17.80;;;12.63;;
51883;SDS011;37915;53.254;6.598;2022-11-12T04:07:43;18.40;;;11.80;;
51883;SDS011;37915;53.254;6.598;2022-11-12T04:10:27;18.35;;;12.10;;
51883;SDS011;37915;53.254;6.598;2022-11-12T04:12:56;18.83;;;11.43;;
51883;SDS011;37915;53.254;6.598;2022-11-12T04:15:40;17.27;;;11.70;;
51883;SDS011;37915;53.254;6.598;2022-11-12T04:18:05;16.38;;;11.55;;
51883;SDS011;37915;53.254;6.598;2022-11-12T04:20:50;18.17;;;11.98;;
51883;SDS011;37915;53.254;6.598;2022-11-12T04:23:34;16.25;;;11.95;;
51883;SDS011;37915;53.254;6.598;2022-11-12T04:25:59;18.27;;;12.05;;
51883;SDS011;37915;53.254;6.598;2022-11-12T04:28:46;19.15;;;11.40;;
51883;SDS011;37915;53.254;6.598;2022-11-12T04:31:36;19.77;;;12.40;;
51883;SDS011;37915;53.254;6.598;2022-11-12T04:34:02;18.20;;;11.55;;
51883;SDS011;37915;53.254;6.598;2022-11-12T04:36:46;17.02;;;11.40;;
51883;SDS011;37915;53.254;6.598;2022-11-12T04:39:11;18.85;;;11.25;;
51883;SDS011;37915;53.254;6.598;2022-11-12T04:41:37;21.60;;;13.00;;
51883;SDS011;37915;53.254;6.598;2022-11-12T04:44:21;16.95;;;11.52;;
51883;SDS011;37915;53.254;6.598;2022-11-12T04:47:05;19.33;;;12.60;;
51883;SDS011;37915;53.254;6.598;2022-11-12T04:49:31;17.42;;;12.07;;
51883;SDS011;37915;53.254;6.598;2022-11-12T04:51:57;20.80;;;13.07;;
51883;SDS011;37915;53.254;6.598;2022-11-12T04:54:32;17.10;;;11.68;;
51883;SDS011;37915;53.254;6.598;2022-11-12T04:56:58;19.48;;;11.85;;
51883;SDS011;37915;53.254;6.598;2022-11-12T04:59:24;22.92;;;11.57;;
51883;SDS011;37915;53.254;6.598;2022-11-12T05:01:50;18.13;;;12.48;;
51883;SDS011;37915;53.254;6.598;2022-11-12T05:04:16;18.58;;;12.23;;
51883;SDS011;37915;53.254;6.598;2022-11-12T05:06:42;16.30;;;11.48;;
51883;SDS011;37915;53.254;6.598;2022-11-12T05:09:17;17.52;;;11.63;;
51883;SDS011;37915;53.254;6.598;2022-11-12T05:11:44;19.02;;;11.43;;
51883;SDS011;37915;53.254;6.598;2022-11-12T05:14:09;18.90;;;12.30;;
51883;SDS011;37915;53.254;6.598;2022-11-12T05:16:35;16.20;;;11.90;;
51883;SDS011;37915;53.254;6.598;2022-11-12T05:19:01;16.90;;;12.23;;
51883;SDS011;37915;53.254;6.598;2022-11-12T05:21:27;18.92;;;11.98;;
51883;SDS011;37915;53.254;6.598;2022-11-12T05:24:11;16.77;;;11.38;;
51883;SDS011;37915;53.254;6.598;2022-11-12T05:26:37;18.23;;;11.85;;
51883;SDS011;37915;53.254;6.598;2022-11-12T05:29:03;19.80;;;12.57;;
51883;SDS011;37915;53.254;6.598;2022-11-12T05:31:29;19.70;;;12.32;;
51883;SDS011;37915;53.254;6.598;2022-11-12T05:33:54;20.98;;;11.73;;
51883;SDS011;37915;53.254;6.598;2022-11-12T05:36:20;20.25;;;12.70;;
51883;SDS011;37915;53.254;6.598;2022-11-12T05:38:46;18.02;;;11.40;;
51883;SDS011;37915;53.254;6.598;2022-11-12T05:41:12;17.60;;;12.10;;
51883;SDS011;37915;53.254;6.598;2022-11-12T05:43:37;17.98;;;12.82;;
51883;SDS011;37915;53.254;6.598;2022-11-12T05:46:03;18.55;;;12.73;;
51883;SDS011;37915;53.254;6.598;2022-11-12T05:48:29;22.42;;;11.90;;
51883;SDS011;37915;53.254;6.598;2022-11-12T05:50:55;18.75;;;12.45;;
51883;SDS011;37915;53.254;6.598;2022-11-12T05:53:20;18.50;;;12.88;;
51883;SDS011;37915;53.254;6.598;2022-11-12T05:55:46;20.27;;;12.52;;
51883;SDS011;37915;53.254;6.598;2022-11-12T05:58:12;17.10;;;11.80;;
51883;SDS011;37915;53.254;6.598;2022-11-12T06:00:37;20.10;;;13.52;;
51883;SDS011;37915;53.254;6.598;2022-11-12T06:03:03;22.67;;;13.27;;
51883;SDS011;37915;53.254;6.598;2022-11-12T06:05:30;18.13;;;12.52;;
51883;SDS011;37915;53.254;6.598;2022-11-12T06:07:57;16.88;;;11.70;;
51883;SDS011;37915;53.254;6.598;2022-11-12T06:10:23;21.85;;;13.27;;
51883;SDS011;37915;53.254;6.598;2022-11-12T06:12:48;17.88;;;12.73;;
51883;SDS011;37915;53.254;6.598;2022-11-12T06:15:14;18.90;;;12.10;;
51883;SDS011;37915;53.254;6.598;2022-11-12T06:17:40;17.80;;;12.10;;
51883;SDS011;37915;53.254;6.598;2022-11-12T06:20:06;16.70;;;12.10;;
51883;SDS011;37915;53.254;6.598;2022-11-12T06:22:32;18.50;;;12.63;;
51883;SDS011;37915;53.254;6.598;2022-11-12T06:24:58;18.58;;;12.45;;
51883;SDS011;37915;53.254;6.598;2022-11-12T06:27:24;18.65;;;11.68;;
51883;SDS011;37915;53.254;6.598;2022-11-12T06:29:49;17.98;;;10.88;;
51883;SDS011;37915;53.254;6.598;2022-11-12T06:32:15;17.85;;;12.40;;
51883;SDS011;37915;53.254;6.598;2022-11-12T06:34:40;16.27;;;12.35;;
51883;SDS011;37915;53.254;6.598;2022-11-12T06:37:06;19.92;;;12.93;;
51883;SDS011;37915;53.254;6.598;2022-11-12T06:39:32;21.52;;;12.43;;
51883;SDS011;37915;53.254;6.598;2022-11-12T06:41:57;16.90;;;11.45;;
51883;SDS011;37915;53.254;6.598;2022-11-12T06:44:23;17.92;;;12.35;;
51883;SDS011;37915;53.254;6.598;2022-11-12T06:46:49;18.92;;;12.48;;
51883;SDS011;37915;53.254;6.598;2022-11-12T06:49:15;17.05;;;12.20;;
51883;SDS011;37915;53.254;6.598;2022-11-12T06:51:40;16.77;;;12.43;;
51883;SDS011;37915;53.254;6.598;2022-11-12T06:54:06;16.80;;;12.18;;
51883;SDS011;37915;53.254;6.598;2022-11-12T06:56:32;19.77;;;11.90;;
51883;SDS011;37915;53.254;6.598;2022-11-12T06:58:57;20.08;;;12.43;;
51883;SDS011;37915;53.254;6.598;2022-11-12T07:01:23;18.27;;;11.45;;
51883;SDS011;37915;53.254;6.598;2022-11-12T07:03:52;15.80;;;11.13;;
51883;SDS011;37915;53.254;6.598;2022-11-12T07:06:18;16.85;;;11.77;;
51883;SDS011;37915;53.254;6.598;2022-11-12T07:08:47;19.13;;;12.20;;
51883;SDS011;37915;53.254;6.598;2022-11-12T07:11:14;22.25;;;13.38;;
51883;SDS011;37915;53.254;6.598;2022-11-12T07:13:41;19.13;;;12.52;;
51883;SDS011;37915;53.254;6.598;2022-11-12T07:16:08;20.92;;;13.90;;
51883;SDS011;37915;53.254;6.598;2022-11-12T07:18:35;19.20;;;13.20;;
51883;SDS011;37915;53.254;6.598;2022-11-12T07:21:13;21.40;;;13.23;;
51883;SDS011;37915;53.254;6.598;2022-11-12T07:23:40;21.77;;;12.60;;
51883;SDS011;37915;53.254;6.598;2022-11-12T07:26:27;21.17;;;12.25;;
51883;SDS011;37915;53.254;6.598;2022-11-12T07:28:52;20.23;;;13.55;;
51883;SDS011;37915;53.254;6.598;2022-11-12T07:31:20;21.33;;;13.18;;
51883;SDS011;37915;53.254;6.598;2022-11-12T07:33:47;22.65;;;12.55;;
51883;SDS011;37915;53.254;6.598;2022-11-12T07:36:14;20.88;;;12.73;;
51883;SDS011;37915;53.254;6.598;2022-11-12T07:38:42;24.30;;;13.73;;
51883;SDS011;37915;53.254;6.598;2022-11-12T07:43:43;25.73;;;13.52;;
51883;SDS011;37915;53.254;6.598;2022-11-12T07:46:11;42.10;;;15.38;;
51883;SDS011;37915;53.254;6.598;2022-11-12T07:48:38;33.00;;;14.52;;
51883;SDS011;37915;53.254;6.598;2022-11-12T07:51:06;31.88;;;14.90;;
51883;SDS011;37915;53.254;6.598;2022-11-12T07:53:35;33.15;;;15.57;;
51883;SDS011;37915;53.254;6.598;2022-11-12T07:56:01;35.35;;;15.98;;
51883;SDS011;37915;53.254;6.598;2022-11-12T07:58:29;34.15;;;16.98;;
51883;SDS011;37915;53.254;6.598;2022-11-12T08:00:56;37.38;;;17.63;;
51883;SDS011;37915;53.254;6.598;2022-11-12T08:03:22;42.88;;;17.08;;
51883;SDS011;37915;53.254;6.598;2022-11-12T08:05:49;38.85;;;18.35;;
51883;SDS011;37915;53.254;6.598;2022-11-12T08:08:15;41.10;;;19.38;;
51883;SDS011;37915;53.254;6.598;2022-11-12T08:10:40;40.13;;;16.67;;
51883;SDS011;37915;53.254;6.598;2022-11-12T08:13:06;33.17;;;17.98;;
51883;SDS011;37915;53.254;6.598;2022-11-12T08:15:32;40.47;;;17.95;;
51883;SDS011;37915;53.254;6.598;2022-11-12T08:17:58;38.50;;;16.08;;
51883;SDS011;37915;53.254;6.598;2022-11-12T08:20:23;40.25;;;18.48;;
51883;SDS011;37915;53.254;6.598;2022-11-12T08:22:49;36.95;;;18.58;;
51883;SDS011;37915;53.254;6.598;2022-11-12T08:25:15;41.80;;;20.00;;
51883;SDS011;37915;53.254;6.598;2022-11-12T08:27:42;37.88;;;18.77;;
51883;SDS011;37915;53.254;6.598;2022-11-12T08:30:08;40.63;;;20.65;;
51883;SDS011;37915;53.254;6.598;2022-11-12T08:32:34;39.78;;;17.60;;
51883;SDS011;37915;53.254;6.598;2022-11-12T08:35:00;28.38;;;17.83;;
51883;SDS011;37915;53.254;6.598;2022-11-12T08:37:26;42.20;;;20.90;;
51883;SDS011;37915;53.254;6.598;2022-11-12T08:39:52;45.63;;;20.30;;
51883;SDS011;37915;53.254;6.598;2022-11-12T08:42:17;34.35;;;18.33;;
51883;SDS011;37915;53.254;6.598;2022-11-12T08:44:43;41.50;;;19.77;;
51883;SDS011;37915;53.254;6.598;2022-11-12T08:47:09;42.33;;;20.73;;
51883;SDS011;37915;53.254;6.598;2022-11-12T08:49:34;47.75;;;20.10;;
51883;SDS011;37915;53.254;6.598;2022-11-12T08:52:00;46.78;;;19.13;;
51883;SDS011;37915;53.254;6.598;2022-11-12T08:54:26;45.78;;;18.50;;
51883;SDS011;37915;53.254;6.598;2022-11-12T08:56:51;57.20;;;19.83;;
51883;SDS011;37915;53.254;6.598;2022-11-12T08:59:17;42.08;;;18.63;;
51883;SDS011;37915;53.254;6.598;2022-11-12T09:01:42;48.70;;;18.60;;
51883;SDS011;37915;53.254;6.598;2022-11-12T09:04:08;45.45;;;18.75;;
51883;SDS011;37915;53.254;6.598;2022-11-12T09:06:34;44.33;;;19.15;;
51883;SDS011;37915;53.254;6.598;2022-11-12T09:08:59;45.17;;;18.45;;
51883;SDS011;37915;53.254;6.598;2022-11-12T09:11:25;56.65;;;19.42;;
51883;SDS011;37915;53.254;6.598;2022-11-12T09:13:54;50.95;;;18.80;;
51883;SDS011;37915;53.254;6.598;2022-11-12T09:16:19;50.97;;;18.27;;
51883;SDS011;37915;53.254;6.598;2022-11-12T09:18:46;54.15;;;19.90;;
51883;SDS011;37915;53.254;6.598;2022-11-12T09:21:12;56.67;;;20.25;;
51883;SDS011;37915;53.254;6.598;2022-11-12T09:23:38;47.30;;;19.20;;
51883;SDS011;37915;53.254;6.598;2022-11-12T09:26:04;52.72;;;20.85;;
51883;SDS011;37915;53.254;6.598;2022-11-12T09:28:31;55.65;;;19.90;;
51883;SDS011;37915;53.254;6.598;2022-11-12T09:30:57;66.07;;;21.08;;
51883;SDS011;37915;53.254;6.598;2022-11-12T09:33:24;62.97;;;20.30;;
51883;SDS011;37915;53.254;6.598;2022-11-12T09:35:52;57.83;;;19.85;;
51883;SDS011;37915;53.254;6.598;2022-11-12T09:38:18;68.90;;;22.23;;
51883;SDS011;37915;53.254;6.598;2022-11-12T09:46:02;63.53;;;21.73;;
51883;SDS011;37915;53.254;6.598;2022-11-12T09:48:43;46.85;;;14.80;;
51883;SDS011;37915;53.254;6.598;2022-11-12T09:51:32;55.17;;;19.80;;
51883;SDS011;37915;53.254;6.598;2022-11-12T09:54:03;65.90;;;21.77;;
51883;SDS011;37915;53.254;6.598;2022-11-12T09:56:38;69.93;;;21.88;;
51883;SDS011;37915;53.254;6.598;2022-11-12T09:59:08;67.90;;;21.83;;
51883;SDS011;37915;53.254;6.598;2022-11-12T10:01:57;55.47;;;19.77;;
51883;SDS011;37915;53.254;6.598;2022-11-12T10:04:36;50.20;;;20.25;;
51883;SDS011;37915;53.254;6.598;2022-11-12T10:07:25;55.85;;;20.25;;
51883;SDS011;37915;53.254;6.598;2022-11-12T10:18:49;55.58;;;19.35;;
51883;SDS011;37915;53.254;6.598;2022-11-12T10:23:56;50.85;;;19.92;;
51883;SDS011;37915;53.254;6.598;2022-11-12T10:26:23;53.38;;;21.42;;
51883;SDS011;37915;53.254;6.598;2022-11-12T10:28:52;44.88;;;19.38;;
51883;SDS011;37915;53.254;6.598;2022-11-12T10:31:26;46.65;;;21.17;;
51883;SDS011;37915;53.254;6.598;2022-11-12T10:34:14;40.80;;;19.50;;
51883;SDS011;37915;53.254;6.598;2022-11-12T10:36:41;63.17;;;17.98;;
51883;SDS011;37915;53.254;6.598;2022-11-12T10:39:36;41.63;;;17.20;;
51883;SDS011;37915;53.254;6.598;2022-11-12T10:42:11;47.72;;;19.02;;
51883;SDS011;37915;53.254;6.598;2022-11-12T10:44:38;34.30;;;16.52;;
51883;SDS011;37915;53.254;6.598;2022-11-12T10:52:52;32.28;;;17.45;;
51883;SDS011;37915;53.254;6.598;2022-11-12T10:55:32;37.42;;;17.75;;
51883;SDS011;37915;53.254;6.598;2022-11-12T11:11:13;32.72;;;17.33;;
51883;SDS011;37915;53.254;6.598;2022-11-12T11:13:47;33.65;;;17.50;;
51883;SDS011;37915;53.254;6.598;2022-11-12T11:16:15;33.80;;;17.63;;
51883;SDS011;37915;53.254;6.598;2022-11-12T11:18:56;29.55;;;16.10;;
51883;SDS011;37915;53.254;6.598;2022-11-12T11:24:13;31.27;;;16.73;;
51883;SDS011;37915;53.254;6.598;2022-11-12T11:27:15;39.78;;;17.17;;
51883;SDS011;37915;53.254;6.598;2022-11-12T11:30:02;30.92;;;16.50;;
51883;SDS011;37915;53.254;6.598;2022-11-12T11:40:40;35.45;;;17.40;;
51883;SDS011;37915;53.254;6.598;2022-11-12T11:46:14;40.60;;;17.75;;
51883;SDS011;37915;53.254;6.598;2022-11-12T11:57:52;34.50;;;18.70;;
51883;SDS011;37915;53.254;6.598;2022-11-12T12:03:43;31.83;;;17.17;;
51883;SDS011;37915;53.254;6.598;2022-11-12T12:19:55;34.80;;;17.63;;
51883;SDS011;37915;53.254;6.598;2022-11-12T12:25:29;38.45;;;18.98;;
51883;SDS011;37915;53.254;6.598;2022-11-12T12:28:00;33.58;;;18.73;;
51883;SDS011;37915;53.254;6.598;2022-11-12T12:30:40;35.75;;;19.40;;
51883;SDS011;37915;53.254;6.598;2022-11-12T12:33:21;33.00;;;18.15;;
51883;SDS011;37915;53.254;6.598;2022-11-12T12:36:01;35.55;;;18.27;;
51883;SDS011;37915;53.254;6.598;2022-11-12T12:44:01;37.20;;;20.38;;
51883;SDS011;37915;53.254;6.598;2022-11-12T12:46:29;33.53;;;18.92;;
51883;SDS011;37915;53.254;6.598;2022-11-12T12:49:00;33.20;;;20.35;;
51883;SDS011;37915;53.254;6.598;2022-11-12T12:51:29;33.45;;;19.15;;
51883;SDS011;37915;53.254;6.598;2022-11-12T12:53:56;35.13;;;20.60;;
51883;SDS011;37915;53.254;6.598;2022-11-12T12:58:54;32.05;;;20.63;;
51883;SDS011;37915;53.254;6.598;2022-11-12T13:04:00;31.45;;;21.08;;
51883;SDS011;37915;53.254;6.598;2022-11-12T13:06:33;32.15;;;21.33;;
51883;SDS011;37915;53.254;6.598;2022-11-12T13:17:02;32.63;;;19.23;;
51883;SDS011;37915;53.254;6.598;2022-11-12T13:19:32;25.50;;;18.77;;
51883;SDS011;37915;53.254;6.598;2022-11-12T13:35:20;29.42;;;19.42;;
51883;SDS011;37915;53.254;6.598;2022-11-12T13:40:37;28.27;;;20.35;;
51883;SDS011;37915;53.254;6.598;2022-11-12T13:51:11;32.08;;;20.02;;
51883;SDS011;37915;53.254;6.598;2022-11-12T13:54:30;32.72;;;21.67;;
51883;SDS011;37915;53.254;6.598;2022-11-12T13:59:47;30.02;;;20.20;;
51883;SDS011;37915;53.254;6.598;2022-11-12T14:02:16;33.92;;;22.85;;
51883;SDS011;37915;53.254;6.598;2022-11-12T14:04:48;33.63;;;21.90;;
51883;SDS011;37915;53.254;6.598;2022-11-12T14:07:27;35.88;;;23.35;;
51883;SDS011;37915;53.254;6.598;2022-11-12T14:10:16;36.08;;;21.85;;
51883;SDS011;37915;53.254;6.598;2022-11-12T14:15:30;32.80;;;21.55;;
51883;SDS011;37915;53.254;6.598;2022-11-12T14:20:46;31.40;;;20.63;;
51883;SDS011;37915;53.254;6.598;2022-11-12T14:23:19;31.50;;;21.20;;
51883;SDS011;37915;53.254;6.598;2022-11-12T14:28:28;31.15;;;21.60;;
51883;SDS011;37915;53.254;6.598;2022-11-12T14:30:57;31.55;;;21.52;;
51883;SDS011;37915;53.254;6.598;2022-11-12T14:33:24;33.33;;;21.85;;
51883;SDS011;37915;53.254;6.598;2022-11-12T14:36:04;31.42;;;20.70;;
51883;SDS011;37915;53.254;6.598;2022-11-12T14:46:02;32.30;;;21.20;;
51883;SDS011;37915;53.254;6.598;2022-11-12T14:48:51;29.90;;;20.17;;
51883;SDS011;37915;53.254;6.598;2022-11-12T14:51:18;30.48;;;20.60;;
51883;SDS011;37915;53.254;6.598;2022-11-12T14:53:47;32.78;;;22.20;;
51883;SDS011;37915;53.254;6.598;2022-11-12T14:56:29;36.88;;;21.50;;
51883;SDS011;37915;53.254;6.598;2022-11-12T14:58:58;33.95;;;20.45;;
51883;SDS011;37915;53.254;6.598;2022-11-12T15:01:29;32.50;;;20.45;;
51883;SDS011;37915;53.254;6.598;2022-11-12T15:04:19;30.55;;;20.52;;
51883;SDS011;37915;53.254;6.598;2022-11-12T15:06:55;33.92;;;20.05;;
51883;SDS011;37915;53.254;6.598;2022-11-12T15:09:37;34.38;;;21.13;;
51883;SDS011;37915;53.254;6.598;2022-11-12T15:12:03;34.88;;;22.48;;
51883;SDS011;37915;53.254;6.598;2022-11-12T15:14:35;31.20;;;22.03;;
51883;SDS011;37915;53.254;6.598;2022-11-12T15:17:01;31.92;;;21.83;;
51883;SDS011;37915;53.254;6.598;2022-11-12T15:19:29;35.15;;;21.05;;
51883;SDS011;37915;53.254;6.598;2022-11-12T15:21:59;32.80;;;22.45;;
51883;SDS011;37915;53.254;6.598;2022-11-12T15:24:36;34.05;;;21.75;;
51883;SDS011;37915;53.254;6.598;2022-11-12T15:30:13;35.75;;;24.38;;
51883;SDS011;37915;53.254;6.598;2022-11-12T15:33:35;38.25;;;24.60;;
51883;SDS011;37915;53.254;6.598;2022-11-12T15:35:36;45.53;;;28.85;;
51883;SDS011;37915;53.254;6.598;2022-11-12T15:38:09;41.10;;;27.83;;
51883;SDS011;37915;53.254;6.598;2022-11-12T15:40:39;40.08;;;24.63;;
51883;SDS011;37915;53.254;6.598;2022-11-12T15:43:40;31.85;;;22.52;;
51883;SDS011;37915;53.254;6.598;2022-11-12T15:46:00;34.88;;;21.48;;
51883;SDS011;37915;53.254;6.598;2022-11-12T15:48:26;34.88;;;22.80;;
51883;SDS011;37915;53.254;6.598;2022-11-12T15:50:52;33.90;;;23.52;;
51883;SDS011;37915;53.254;6.598;2022-11-12T15:53:19;36.22;;;24.38;;
51883;SDS011;37915;53.254;6.598;2022-11-12T15:55:45;34.53;;;23.40;;
51883;SDS011;37915;53.254;6.598;2022-11-12T15:58:13;31.85;;;22.33;;
51883;SDS011;37915;53.254;6.598;2022-11-12T16:00:44;32.15;;;21.35;;
51883;SDS011;37915;53.254;6.598;2022-11-12T16:03:11;31.20;;;21.58;;
51883;SDS011;37915;53.254;6.598;2022-11-12T16:05:42;37.13;;;22.40;;
51883;SDS011;37915;53.254;6.598;2022-11-12T16:08:08;35.70;;;21.77;;
51883;SDS011;37915;53.254;6.598;2022-11-12T16:10:35;38.88;;;23.02;;
51883;SDS011;37915;53.254;6.598;2022-11-12T16:13:02;33.60;;;21.73;;
51883;SDS011;37915;53.254;6.598;2022-11-12T16:15:29;32.88;;;20.35;;
51883;SDS011;37915;53.254;6.598;2022-11-12T16:17:55;33.38;;;21.80;;
51883;SDS011;37915;53.254;6.598;2022-11-12T16:20:25;40.20;;;20.83;;
51883;SDS011;37915;53.254;6.598;2022-11-12T16:22:53;34.53;;;21.70;;
51883;SDS011;37915;53.254;6.598;2022-11-12T16:25:19;28.58;;;20.38;;
51883;SDS011;37915;53.254;6.598;2022-11-12T16:27:46;30.35;;;20.45;;
51883;SDS011;37915;53.254;6.598;2022-11-12T16:30:16;36.20;;;20.63;;
51883;SDS011;37915;53.254;6.598;2022-11-12T16:32:46;30.15;;;20.65;;
51883;SDS011;37915;53.254;6.598;2022-11-12T16:35:13;31.88;;;20.20;;
51883;SDS011;37915;53.254;6.598;2022-11-12T16:37:41;28.20;;;18.80;;
51883;SDS011;37915;53.254;6.598;2022-11-12T16:40:11;32.47;;;20.58;;
51883;SDS011;37915;53.254;6.598;2022-11-12T16:42:42;28.02;;;21.15;;
51883;SDS011;37915;53.254;6.598;2022-11-12T16:45:17;31.15;;;19.83;;
51883;SDS011;37915;53.254;6.598;2022-11-12T16:47:47;31.23;;;21.23;;
51883;SDS011;37915;53.254;6.598;2022-11-12T16:50:16;37.13;;;20.23;;
51883;SDS011;37915;53.254;6.598;2022-11-12T16:52:45;30.30;;;18.85;;
51883;SDS011;37915;53.254;6.598;2022-11-12T16:55:12;30.45;;;18.92;;
51883;SDS011;37915;53.254;6.598;2022-11-12T16:57:38;27.92;;;19.25;;
51883;SDS011;37915;53.254;6.598;2022-11-12T17:00:14;29.35;;;18.70;;
51883;SDS011;37915;53.254;6.598;2022-11-12T17:02:41;27.92;;;18.58;;
51883;SDS011;37915;53.254;6.598;2022-11-12T17:05:15;27.63;;;17.98;;